Weather reports worldwide

Advertisment
San Vicente, Spain (8017): temperature & dewpoint: 17.09.2018 03:00:00 - 23.09.2018 03:00:00 (CEST)San Vicente, Spain (8017): wind speed & gusts: 17.09.2018 03:00:00 - 23.09.2018 03:00:00 (CEST)San Vicente, Spain (8017): wind direction: 17.09.2018 03:00:00 - 23.09.2018 03:00:00 (CEST)San Vicente, Spain (8017): reduced air pressure: 17.09.2018 03:00:00 - 23.09.2018 03:00:00 (CEST)San Vicente, Spain (8017): precipitation: 17.09.2018 03:00:00 - 23.09.2018 03:00:00 (CEST)
Date & Time tt [°C] td [°C] ff [km/h] ff [kn] fx [km/h] fx [kn] dd ppp [hPa] rr [mm]
23.09.2018 03:00:00 - - - - - - - - -
23.09.2018 02:00:00 17,2 15,5 4 2 8 5 SW 1024,9 -
23.09.2018 01:00:00 17,5 15,9 6 3 8 4 SSW 1025,0 0,0
23.09.2018 00:00:00 17,9 16,0 6 3 10 6 SSW 1025,1 0,0
22.09.2018 23:00:00 19,0 17,0 6 4 12 7 W 1024,9 0,0
22.09.2018 22:00:00 19,4 17,0 4 2 12 6 SW 1024,6 0,0
22.09.2018 21:00:00 19,9 17,3 4 2 11 6 WSW 1024,3 0,0
22.09.2018 20:00:00 20,5 17,3 8 4 15 8 W 1023,8 -
22.09.2018 19:00:00 21,5 17,1 12 7 16 8 NW 1023,4 0,0
22.09.2018 18:00:00 22,8 17,7 9 5 14 7 WNW 1023,4 0,0
22.09.2018 17:00:00 22,6 18,8 6 4 16 8 NW 1023,7 0,0
22.09.2018 16:00:00 22,2 18,4 9 5 14 8 NW 1023,6 0,0
22.09.2018 15:00:00 21,8 18,6 9 5 14 7 NW 1023,5 0,0
22.09.2018 14:00:00 21,4 18,2 2 1 11 6 N 1023,5 -
22.09.2018 13:00:00 20,6 17,2 9 5 12 7 NW 1023,6 0,0
22.09.2018 12:00:00 20,8 17,1 1 1 6 4 ENE 1023,2 0,0
22.09.2018 11:00:00 19,5 17,5 2 1 9 5 NNE 1022,8 0,0
22.09.2018 10:00:00 18,0 16,5 4 2 9 5 S 1022,5 0,0
22.09.2018 09:00:00 15,9 14,4 6 4 11 6 S 1022,6 0,1
22.09.2018 08:00:00 15,7 14,2 4 2 8 5 SW 1022,3 -
22.09.2018 07:00:00 16,1 14,6 6 3 9 5 SW 1022,0 0,0
22.09.2018 06:00:00 16,4 14,9 8 5 13 7 S 1021,5 0,0
22.09.2018 05:00:00 17,1 15,6 5 3 10 5 S 1022,2 0,0
22.09.2018 04:00:00 16,7 15,3 5 3 8 4 S 1023,0 0,0
22.09.2018 03:00:00 17,1 15,6 6 3 8 4 S 1023,3 0,0
22.09.2018 02:00:00 17,3 15,8 5 3 7 4 SE 1023,4 -
22.09.2018 01:00:00 17,4 15,9 4 2 7 4 SE 1023,4 0,1
22.09.2018 00:00:00 17,8 16,3 5 3 10 6 ESE 1023,9 0,0
21.09.2018 23:00:00 18,0 16,5 4 2 10 6 ESE 1024,1 0,0
21.09.2018 22:00:00 18,0 16,5 6 4 16 9 E 1024,2 0,0
21.09.2018 21:00:00 18,0 16,5 5 3 13 7 E 1023,8 0,4
21.09.2018 20:00:00 18,4 16,7 8 4 12 6 NNE 1023,2 -
21.09.2018 19:00:00 19,1 17,5 4 2 15 8 N 1023,4 0,0
21.09.2018 18:00:00 20,1 18,1 8 5 16 9 WNW 1023,1 0,0
21.09.2018 17:00:00 20,5 18,5 10 5 21 11 WNW 1022,8 0,0
21.09.2018 16:00:00 20,5 18,2 15 8 28 15 WNW 1022,6 0,0
21.09.2018 15:00:00 21,3 18,3 14 8 26 14 WNW 1022,3 0,0
21.09.2018 14:00:00 21,0 17,2 10 5 20 11 WNW 1022,1 -
21.09.2018 13:00:00 21,5 17,1 14 8 19 11 NW 1022,1 0,0
21.09.2018 12:00:00 21,3 17,3 5 3 9 5 NW 1021,7 0,0
21.09.2018 11:00:00 21,5 18,1 3 1 12 7 WSW 1020,9 0,0
21.09.2018 10:00:00 18,5 16,3 8 5 16 9 SW 1020,0 0,0
21.09.2018 09:00:00 16,6 14,8 12 6 17 9 SSW 1019,1 0,0
21.09.2018 08:00:00 15,8 14,1 12 7 19 11 SSW 1018,4 -
21.09.2018 07:00:00 15,7 13,9 13 7 19 10 SSW 1018,1 0,0
21.09.2018 06:00:00 15,7 14,0 13 7 16 9 SSW 1017,5 0,0
21.09.2018 05:00:00 16,2 14,5 12 6 16 9 S 1017,4 0,0
21.09.2018 04:00:00 16,4 14,7 9 5 15 8 S 1017,5 0,0
21.09.2018 03:00:00 17,0 15,3 10 5 13 7 SSW 1017,5 0,0
21.09.2018 02:00:00 17,0 15,3 9 5 13 7 SSW 1018,0 -
21.09.2018 01:00:00 17,6 16,0 6 3 9 5 SSW 1018,0 0,0
21.09.2018 00:00:00 18,0 16,3 5 3 27 15 SSW 1018,3 0,0
20.09.2018 23:00:00 18,1 16,4 21 12 30 16 W 1018,5 0,0
20.09.2018 22:00:00 19,1 17,2 4 2 11 6 SSW 1018,3 0,0
20.09.2018 21:00:00 19,4 17,4 4 2 7 4 S 1017,7 0,0
20.09.2018 20:00:00 20,1 18,1 0 0 4 2 N 1017,5 -
20.09.2018 19:00:00 20,3 18,2 3 2 7 4 WNW 1017,4 0,0
20.09.2018 18:00:00 20,5 18,2 6 3 8 4 NW 1017,6 0,0
20.09.2018 17:00:00 21,2 18,8 4 2 12 6 NNW 1017,8 0,0
20.09.2018 16:00:00 21,0 18,8 9 5 17 9 NW 1018,4 0,0
20.09.2018 15:00:00 20,6 18,5 11 6 16 9 WNW 1018,5 0,0
20.09.2018 14:00:00 19,9 17,9 12 7 18 10 NW 1018,7 -
20.09.2018 13:00:00 19,9 17,9 11 6 15 8 NW 1019,2 0,0
20.09.2018 12:00:00 19,9 17,7 8 4 16 8 WNW 1019,8 0,0
20.09.2018 11:00:00 18,9 16,7 9 5 12 6 WNW 1019,9 0,0
20.09.2018 10:00:00 18,2 16,1 1 0 10 6 NNW 1019,6 0,0
20.09.2018 09:00:00 16,9 15,1 8 4 10 6 SSW 1019,5 0,0
20.09.2018 08:00:00 16,7 14,9 8 4 13 7 SW 1019,8 -
20.09.2018 07:00:00 16,4 14,7 6 3 15 8 SW 1019,8 0,0
20.09.2018 06:00:00 16,1 14,6 11 6 14 8 SSW 1020,1 0,0
20.09.2018 05:00:00 16,6 15,2 11 6 13 7 SSW 1020,4 0,0
20.09.2018 04:00:00 17,5 16,0 9 5 11 6 SSW 1020,9 0,0
20.09.2018 03:00:00 18,2 16,7 7 4 11 6 SSW 1021,5 0,0
20.09.2018 02:00:00 18,3 16,6 8 4 9 5 S 1022,0 -
20.09.2018 01:00:00 18,9 16,9 4 2 8 4 SSW 1022,4 0,0
20.09.2018 00:00:00 19,7 17,9 5 3 9 5 SW 1022,5 0,0
19.09.2018 23:00:00 19,5 17,5 5 3 7 4 S 1022,7 0,0
19.09.2018 22:00:00 19,7 17,3 2 1 5 3 W 1022,4 0,0
19.09.2018 21:00:00 19,4 17,0 5 3 9 5 W 1022,1 0,0
19.09.2018 20:00:00 20,3 17,5 1 1 13 7 W 1021,7 -
19.09.2018 19:00:00 20,7 17,7 9 5 16 9 WNW 1021,7 0,0
19.09.2018 18:00:00 20,8 17,6 10 5 15 8 WNW 1021,5 0,0
19.09.2018 17:00:00 21,6 18,2 11 6 19 11 W 1021,6 0,0
19.09.2018 16:00:00 21,8 17,6 14 7 22 12 WNW 1021,9 0,0
19.09.2018 15:00:00 21,2 18,4 16 8 23 13 WNW 1022,1 0,0
19.09.2018 14:00:00 20,6 17,8 15 8 23 12 WNW 1022,0 -
19.09.2018 13:00:00 20,3 17,9 10 5 14 7 WNW 1021,8 0,0
19.09.2018 12:00:00 20,1 17,9 4 2 9 5 NNW 1021,8 0,0
19.09.2018 11:00:00 19,8 17,8 3 2 6 4 S 1021,3 0,0
19.09.2018 10:00:00 18,3 16,6 4 2 6 4 SW 1021,0 0,0
19.09.2018 09:00:00 18,5 17,0 1 1 8 5 SW 1020,6 0,0
19.09.2018 08:00:00 18,4 16,9 2 1 6 3 SSW 1020,3 -
19.09.2018 07:00:00 18,6 17,1 4 2 15 8 WSW 1020,0 0,0
19.09.2018 06:00:00 18,3 16,8 10 5 20 11 W 1019,4 0,0
19.09.2018 05:00:00 18,3 16,8 6 4 12 6 WNW 1019,1 0,0
19.09.2018 04:00:00 18,0 16,5 6 3 8 4 SSW 1018,7 0,0
19.09.2018 03:00:00 18,2 16,7 5 3 10 5 S 1019,4 0,0
19.09.2018 02:00:00 18,3 16,8 8 4 11 6 SSW 1020,1 -
19.09.2018 01:00:00 18,7 17,2 4 2 10 5 W 1020,4 0,0
19.09.2018 00:00:00 18,8 17,3 4 2 9 5 W 1019,7 0,0
18.09.2018 23:00:00 19,0 17,3 6 4 8 4 SSW 1019,3 0,0
18.09.2018 22:00:00 19,7 18,0 3 2 5 3 SW 1019,5 0,0
18.09.2018 21:00:00 20,0 17,9 2 1 6 3 NW 1018,7 0,0
18.09.2018 20:00:00 21,3 19,2 2 1 9 5 NNW 1018,3 -
18.09.2018 19:00:00 21,5 19,3 5 3 13 7 WNW 1018,1 0,0
18.09.2018 18:00:00 21,7 19,3 9 5 16 9 WNW 1017,6 0,0
18.09.2018 17:00:00 21,5 19,3 11 6 20 11 WNW 1017,5 0,0
18.09.2018 16:00:00 21,0 18,9 14 8 21 11 WNW 1017,5 0,0
18.09.2018 15:00:00 20,9 18,5 13 7 19 10 WNW 1017,2 0,0
18.09.2018 14:00:00 20,9 18,5 8 5 15 8 NNW 1017,1 -
18.09.2018 13:00:00 21,2 18,0 7 4 10 5 NW 1017,3 0,0
18.09.2018 12:00:00 20,9 17,7 3 2 7 4 NNW 1017,6 0,0
18.09.2018 11:00:00 21,3 18,5 3 1 12 7 SSW 1017,3 0,0
18.09.2018 10:00:00 17,7 15,7 9 5 13 7 S 1016,9 0,0
18.09.2018 09:00:00 16,4 14,6 10 5 12 7 SSW 1016,7 0,0
18.09.2018 08:00:00 16,1 14,2 8 4 11 6 SSW 1016,0 -
18.09.2018 07:00:00 16,5 14,7 4 2 11 6 S 1015,7 0,0
18.09.2018 06:00:00 16,4 14,6 4 2 11 6 SSW 1015,6 0,0
18.09.2018 05:00:00 16,9 14,9 7 4 10 5 SSW 1015,3 0,0
18.09.2018 04:00:00 17,1 14,9 6 4 22 12 SSW 1015,2 0,0
18.09.2018 03:00:00 17,7 15,2 15 8 24 13 W 1014,9 0,0
18.09.2018 02:00:00 17,5 15,2 11 6 16 9 SSW 1014,9 -
18.09.2018 01:00:00 17,5 15,2 12 6 15 8 SW 1015,6 0,0
18.09.2018 00:00:00 18,4 15,8 8 4 16 9 SSW 1016,1 0,0
17.09.2018 23:00:00 19,0 16,4 3 2 13 7 WSW 1015,7 0,0
17.09.2018 22:00:00 19,3 17,1 10 5 12 6 S 1015,1 0,0
17.09.2018 21:00:00 19,9 16,7 1 1 6 4 N 1014,7 0,0
17.09.2018 20:00:00 20,4 16,2 4 2 22 12 W 1014,0 -
17.09.2018 19:00:00 20,9 17,7 9 5 19 10 WNW 1013,3 0,0
17.09.2018 18:00:00 21,6 18,4 7 4 22 12 WNW 1013,1 0,0
17.09.2018 17:00:00 21,2 17,0 14 7 29 16 WNW 1013,3 0,0
17.09.2018 16:00:00 23,2 17,2 14 8 31 17 WNW 1013,2 0,0
17.09.2018 15:00:00 21,7 18,3 17 9 27 14 WNW 1013,3 0,0
17.09.2018 14:00:00 20,4 18,0 8 4 19 10 WNW 1013,7 -
17.09.2018 13:00:00 19,3 17,3 8 5 12 6 NW 1013,8 0,0
17.09.2018 12:00:00 19,3 17,3 6 3 11 6 NW 1014,1 0,0
17.09.2018 11:00:00 19,1 17,2 6 4 9 5 WNW 1014,4 0,0
17.09.2018 10:00:00 17,4 15,9 2 1 10 5 SW 1014,5 0,0
17.09.2018 09:00:00 15,4 13,9 10 6 14 8 SSW 1014,6 0,0
17.09.2018 08:00:00 14,9 13,5 10 6 13 7 SSW 1014,9 -
17.09.2018 07:00:00 15,2 13,8 9 5 11 6 SSW 1015,6 0,0
17.09.2018 06:00:00 15,9 14,4 5 3 10 5 S 1016,2 0,0
17.09.2018 05:00:00 16,5 15,0 8 5 10 5 S 1016,8 0,0
17.09.2018 04:00:00 17,5 15,9 7 4 13 7 SSE 1017,6 0,0
17.09.2018 03:00:00 18,1 16,2 6 4 17 9 SE 1018,3 0,0

tt = temperature
td = dewpoint
ff = wind speed
fx = gusts
dd = wind direction
ppp = reduced air pressure
rr = precipitation

Next stations